sensor_id;sensor_type;location;lat;lon;timestamp;pressure;altitude;pressure_sealevel;temperature;humidity
8398;BME280;4236;54.504;9.588;2023-08-21T00:00:49;102262.78;;;17.60;100.00
8398;BME280;4236;54.504;9.588;2023-08-21T00:03:16;102261.13;;;17.59;100.00
8398;BME280;4236;54.504;9.588;2023-08-21T00:05:44;102260.91;;;17.60;100.00
8398;BME280;4236;54.504;9.588;2023-08-21T00:08:12;102264.84;;;17.58;100.00
8398;BME280;4236;54.504;9.588;2023-08-21T00:10:39;102267.16;;;17.61;100.00
8398;BME280;4236;54.504;9.588;2023-08-21T00:13:08;102259.66;;;17.63;100.00
8398;BME280;4236;54.504;9.588;2023-08-21T00:15:39;102263.00;;;17.65;100.00
8398;BME280;4236;54.504;9.588;2023-08-21T00:18:06;102265.47;;;17.66;100.00
8398;BME280;4236;54.504;9.588;2023-08-21T00:20:34;102266.09;;;17.68;100.00
8398;BME280;4236;54.504;9.588;2023-08-21T00:23:02;102258.00;;;17.68;100.00
8398;BME280;4236;54.504;9.588;2023-08-21T00:25:30;102268.59;;;17.70;100.00
8398;BME280;4236;54.504;9.588;2023-08-21T00:27:57;102259.50;;;17.71;100.00
8398;BME280;4236;54.504;9.588;2023-08-21T00:30:25;102257.81;;;17.70;100.00
8398;BME280;4236;54.504;9.588;2023-08-21T00:32:54;102260.69;;;17.68;100.00
8398;BME280;4236;54.504;9.588;2023-08-21T00:35:22;102259.25;;;17.66;100.00
8398;BME280;4236;54.504;9.588;2023-08-21T00:37:49;102257.81;;;17.63;100.00
8398;BME280;4236;54.504;9.588;2023-08-21T00:40:17;102259.88;;;17.61;100.00
8398;BME280;4236;54.504;9.588;2023-08-21T00:42:45;102253.84;;;17.59;100.00
8398;BME280;4236;54.504;9.588;2023-08-21T00:45:13;102253.22;;;17.57;100.00
8398;BME280;4236;54.504;9.588;2023-08-21T00:47:42;102257.78;;;17.57;100.00
8398;BME280;4236;54.504;9.588;2023-08-21T00:50:12;102254.91;;;17.58;100.00
8398;BME280;4236;54.504;9.588;2023-08-21T00:52:42;102254.69;;;17.60;100.00
8398;BME280;4236;54.504;9.588;2023-08-21T00:55:13;102263.63;;;17.60;100.00
8398;BME280;4236;54.504;9.588;2023-08-21T00:57:41;102263.19;;;17.63;100.00
8398;BME280;4236;54.504;9.588;2023-08-21T01:00:10;102265.06;;;17.63;100.00
8398;BME280;4236;54.504;9.588;2023-08-21T01:02:39;102261.34;;;17.64;100.00
8398;BME280;4236;54.504;9.588;2023-08-21T01:05:12;102259.66;;;17.63;100.00
8398;BME280;4236;54.504;9.588;2023-08-21T01:07:47;102259.66;;;17.63;100.00
8398;BME280;4236;54.504;9.588;2023-08-21T01:10:22;102262.16;;;17.58;100.00
8398;BME280;4236;54.504;9.588;2023-08-21T01:12:55;102256.75;;;17.58;100.00
8398;BME280;4236;54.504;9.588;2023-08-21T01:15:25;102261.53;;;17.56;100.00
8398;BME280;4236;54.504;9.588;2023-08-21T01:17:53;102266.47;;;17.52;100.00
8398;BME280;4236;54.504;9.588;2023-08-21T01:20:23;102263.97;;;17.51;100.00
8398;BME280;4236;54.504;9.588;2023-08-21T01:22:51;102264.63;;;17.53;100.00
8398;BME280;4236;54.504;9.588;2023-08-21T01:25:19;102270.44;;;17.50;100.00
8398;BME280;4236;54.504;9.588;2023-08-21T01:27:48;102265.44;;;17.47;100.00
8398;BME280;4236;54.504;9.588;2023-08-21T01:30:17;102266.25;;;17.47;100.00
8398;BME280;4236;54.504;9.588;2023-08-21T01:32:50;102267.72;;;17.50;100.00
8398;BME280;4236;54.504;9.588;2023-08-21T01:35:20;102273.75;;;17.52;100.00
8398;BME280;4236;54.504;9.588;2023-08-21T01:37:49;102265.03;;;17.50;100.00
8398;BME280;4236;54.504;9.588;2023-08-21T01:40:21;102271.44;;;17.49;100.00
8398;BME280;4236;54.504;9.588;2023-08-21T01:42:49;102269.56;;;17.43;100.00
8398;BME280;4236;54.504;9.588;2023-08-21T01:45:17;102272.47;;;17.41;100.00
8398;BME280;4236;54.504;9.588;2023-08-21T01:47:45;102278.50;;;17.43;100.00
8398;BME280;4236;54.504;9.588;2023-08-21T01:50:12;102268.94;;;17.47;100.00
8398;BME280;4236;54.504;9.588;2023-08-21T01:52:40;102270.63;;;17.48;100.00
8398;BME280;4236;54.504;9.588;2023-08-21T01:55:08;102267.50;;;17.51;100.00
8398;BME280;4236;54.504;9.588;2023-08-21T01:57:38;102272.72;;;17.53;100.00
8398;BME280;4236;54.504;9.588;2023-08-21T02:00:06;102275.22;;;17.54;100.00
8398;BME280;4236;54.504;9.588;2023-08-21T02:02:34;102268.13;;;17.53;100.00
8398;BME280;4236;54.504;9.588;2023-08-21T02:05:03;102272.53;;;17.54;100.00
8398;BME280;4236;54.504;9.588;2023-08-21T02:07:31;102263.41;;;17.55;100.00
8398;BME280;4236;54.504;9.588;2023-08-21T02:09:59;102269.41;;;17.57;100.00
8398;BME280;4236;54.504;9.588;2023-08-21T02:12:27;102273.56;;;17.60;100.00
8398;BME280;4236;54.504;9.588;2023-08-21T02:14:56;102268.16;;;17.60;100.00
8398;BME280;4236;54.504;9.588;2023-08-21T02:17:26;102275.00;;;17.62;100.00
8398;BME280;4236;54.504;9.588;2023-08-21T02:19:54;102272.72;;;17.59;100.00
8398;BME280;4236;54.504;9.588;2023-08-21T02:22:21;102273.56;;;17.60;100.00
8398;BME280;4236;54.504;9.588;2023-08-21T02:24:49;102276.25;;;17.60;100.00
8398;BME280;4236;54.504;9.588;2023-08-21T02:27:16;102284.78;;;17.63;100.00
8398;BME280;4236;54.504;9.588;2023-08-21T02:29:44;102276.06;;;17.61;100.00
8398;BME280;4236;54.504;9.588;2023-08-21T02:32:13;102278.56;;;17.63;100.00
8398;BME280;4236;54.504;9.588;2023-08-21T02:34:41;102275.84;;;17.63;100.00
8398;BME280;4236;54.504;9.588;2023-08-21T02:37:08;102283.53;;;17.59;100.00
8398;BME280;4236;54.504;9.588;2023-08-21T02:39:36;102280.22;;;17.57;100.00
8398;BME280;4236;54.504;9.588;2023-08-21T02:42:04;102276.44;;;17.52;100.00
8398;BME280;4236;54.504;9.588;2023-08-21T02:44:31;102275.81;;;17.50;100.00
8398;BME280;4236;54.504;9.588;2023-08-21T02:46:59;102273.94;;;17.50;100.00
8398;BME280;4236;54.504;9.588;2023-08-21T02:49:28;102279.97;;;17.52;100.00
8398;BME280;4236;54.504;9.588;2023-08-21T02:51:55;102283.50;;;17.53;100.00
8398;BME280;4236;54.504;9.588;2023-08-21T02:54:23;102281.00;;;17.51;100.00
8398;BME280;4236;54.504;9.588;2023-08-21T02:56:51;102280.16;;;17.51;100.00
8398;BME280;4236;54.504;9.588;2023-08-21T02:59:18;102280.81;;;17.53;100.00
8398;BME280;4236;54.504;9.588;2023-08-21T03:01:46;102268.97;;;17.54;100.00
8398;BME280;4236;54.504;9.588;2023-08-21T03:04:14;102268.81;;;17.55;100.00
8398;BME280;4236;54.504;9.588;2023-08-21T03:06:44;102271.50;;;17.55;100.00
8398;BME280;4236;54.504;9.588;2023-08-21T03:09:12;102275.84;;;17.56;100.00
8398;BME280;4236;54.504;9.588;2023-08-21T03:11:40;102276.06;;;17.55;100.00
8398;BME280;4236;54.504;9.588;2023-08-21T03:14:08;102277.28;;;17.52;100.00
8398;BME280;4236;54.504;9.588;2023-08-21T03:16:35;102273.75;;;17.52;100.00
8398;BME280;4236;54.504;9.588;2023-08-21T03:19:03;102273.13;;;17.50;100.00
8398;BME280;4236;54.504;9.588;2023-08-21T03:21:31;102276.84;;;17.49;100.00
8398;BME280;4236;54.504;9.588;2023-08-21T03:24:00;102275.59;;;17.45;100.00
8398;BME280;4236;54.504;9.588;2023-08-21T03:26:30;102274.97;;;17.43;100.00
8398;BME280;4236;54.504;9.588;2023-08-21T03:28:58;102276.00;;;17.42;100.00
8398;BME280;4236;54.504;9.588;2023-08-21T03:31:26;102277.47;;;17.38;100.00
8398;BME280;4236;54.504;9.588;2023-08-21T03:33:53;102285.53;;;17.38;100.00
8398;BME280;4236;54.504;9.588;2023-08-21T03:36:21;102280.34;;;17.36;100.00
8398;BME280;4236;54.504;9.588;2023-08-21T03:38:57;102283.44;;;17.33;100.00
8398;BME280;4236;54.504;9.588;2023-08-21T03:41:26;102276.81;;;17.29;100.00
8398;BME280;4236;54.504;9.588;2023-08-21T03:43:53;102278.25;;;17.25;100.00
8398;BME280;4236;54.504;9.588;2023-08-21T03:46:21;102268.69;;;17.23;100.00
8398;BME280;4236;54.504;9.588;2023-08-21T03:48:49;102276.78;;;17.23;100.00
8398;BME280;4236;54.504;9.588;2023-08-21T03:51:17;102262.03;;;17.19;100.00
8398;BME280;4236;54.504;9.588;2023-08-21T03:53:45;102266.59;;;17.18;100.00
8398;BME280;4236;54.504;9.588;2023-08-21T03:56:12;102268.06;;;17.14;100.00
8398;BME280;4236;54.504;9.588;2023-08-21T03:58:42;102263.47;;;17.14;100.00
8398;BME280;4236;54.504;9.588;2023-08-21T04:01:09;102263.69;;;17.13;100.00
8398;BME280;4236;54.504;9.588;2023-08-21T04:03:37;102260.78;;;17.14;100.00
8398;BME280;4236;54.504;9.588;2023-08-21T04:06:05;102267.00;;;17.15;100.00
8398;BME280;4236;54.504;9.588;2023-08-21T04:08:33;102272.41;;;17.15;100.00
8398;BME280;4236;54.504;9.588;2023-08-21T04:11:01;102274.25;;;17.14;100.00
8398;BME280;4236;54.504;9.588;2023-08-21T04:13:29;102271.78;;;17.13;100.00
8398;BME280;4236;54.504;9.588;2023-08-21T04:15:58;102270.31;;;17.10;100.00
8398;BME280;4236;54.504;9.588;2023-08-21T04:18:26;102276.31;;;17.06;100.00
8398;BME280;4236;54.504;9.588;2023-08-21T04:21:07;102273.44;;;17.07;100.00
8398;BME280;4236;54.504;9.588;2023-08-21T04:23:35;102274.44;;;17.06;100.00
8398;BME280;4236;54.504;9.588;2023-08-21T04:26:03;102278.38;;;17.04;100.00
8398;BME280;4236;54.504;9.588;2023-08-21T04:28:32;102278.16;;;17.05;100.00
8398;BME280;4236;54.504;9.588;2023-08-21T04:31:04;102274.84;;;17.03;100.00
8398;BME280;4236;54.504;9.588;2023-08-21T04:33:32;102275.28;;;17.07;100.00
8398;BME280;4236;54.504;9.588;2023-08-21T04:36:00;102279.44;;;17.09;100.00
8398;BME280;4236;54.504;9.588;2023-08-21T04:38:28;102274.06;;;17.16;100.00
8398;BME280;4236;54.504;9.588;2023-08-21T04:40:56;102269.94;;;17.20;100.00
8398;BME280;4236;54.504;9.588;2023-08-21T04:43:23;102273.88;;;17.24;100.00
8398;BME280;4236;54.504;9.588;2023-08-21T04:45:51;102274.72;;;17.25;100.00
8398;BME280;4236;54.504;9.588;2023-08-21T04:48:21;102263.94;;;17.25;100.00
8398;BME280;4236;54.504;9.588;2023-08-21T04:50:49;102268.91;;;17.28;100.00
8398;BME280;4236;54.504;9.588;2023-08-21T04:53:17;102262.31;;;17.37;100.00
8398;BME280;4236;54.504;9.588;2023-08-21T04:55:44;102263.13;;;17.37;100.00
8398;BME280;4236;54.504;9.588;2023-08-21T04:58:12;102268.97;;;17.41;100.00
8398;BME280;4236;54.504;9.588;2023-08-21T05:00:40;102268.94;;;17.47;100.00
8398;BME280;4236;54.504;9.588;2023-08-21T05:03:08;102268.13;;;17.53;100.00
8398;BME280;4236;54.504;9.588;2023-08-21T05:05:37;102269.84;;;17.61;100.00
8398;BME280;4236;54.504;9.588;2023-08-21T05:08:05;102265.28;;;17.55;100.00
8398;BME280;4236;54.504;9.588;2023-08-21T05:10:33;102267.72;;;17.50;100.00
8398;BME280;4236;54.504;9.588;2023-08-21T05:13:00;102266.88;;;17.43;100.00
8398;BME280;4236;54.504;9.588;2023-08-21T05:15:28;102263.38;;;17.49;100.00
8398;BME280;4236;54.504;9.588;2023-08-21T05:17:56;102267.56;;;17.58;100.00
8398;BME280;4236;54.504;9.588;2023-08-21T05:20:23;102269.44;;;17.64;100.00
8398;BME280;4236;54.504;9.588;2023-08-21T05:22:52;102271.50;;;17.75;100.00
8398;BME280;4236;54.504;9.588;2023-08-21T05:25:20;102270.69;;;17.94;100.00
8398;BME280;4236;54.504;9.588;2023-08-21T05:27:48;102281.88;;;18.04;100.00
8398;BME280;4236;54.504;9.588;2023-08-21T05:30:16;102276.06;;;18.14;100.00
8398;BME280;4236;54.504;9.588;2023-08-21T05:32:44;102275.22;;;18.13;100.00
8398;BME280;4236;54.504;9.588;2023-08-21T05:35:11;102269.19;;;18.38;100.00
8398;BME280;4236;54.504;9.588;2023-08-21T05:37:39;102267.09;;;18.53;100.00
8398;BME280;4236;54.504;9.588;2023-08-21T05:40:09;102271.63;;;18.65;100.00
8398;BME280;4236;54.504;9.588;2023-08-21T05:42:37;102265.72;;;18.88;100.00
8398;BME280;4236;54.504;9.588;2023-08-21T05:45:07;102277.94;;;18.97;100.00
8398;BME280;4236;54.504;9.588;2023-08-21T05:47:35;102274.50;;;19.21;100.00
8398;BME280;4236;54.504;9.588;2023-08-21T05:50:03;102275.06;;;19.30;100.00
8398;BME280;4236;54.504;9.588;2023-08-21T05:52:31;102269.63;;;19.37;100.00
8398;BME280;4236;54.504;9.588;2023-08-21T05:54:58;102278.53;;;19.50;100.00
8398;BME280;4236;54.504;9.588;2023-08-21T05:57:28;102280.63;;;20.22;100.00
8398;BME280;4236;54.504;9.588;2023-08-21T05:59:55;102277.34;;;20.81;100.00
8398;BME280;4236;54.504;9.588;2023-08-21T06:02:23;102272.56;;;21.96;100.00
8398;BME280;4236;54.504;9.588;2023-08-21T06:04:51;102260.53;;;22.03;100.00
8398;BME280;4236;54.504;9.588;2023-08-21T06:07:19;102249.31;;;22.12;100.00
8398;BME280;4236;54.504;9.588;2023-08-21T06:09:47;102251.91;;;22.93;100.00
8398;BME280;4236;54.504;9.588;2023-08-21T06:12:14;102256.06;;;24.40;100.00
8398;BME280;4236;54.504;9.588;2023-08-21T06:14:43;102245.28;;;25.42;100.00
8398;BME280;4236;54.504;9.588;2023-08-21T06:17:11;102234.13;;;25.75;100.00
8398;BME280;4236;54.504;9.588;2023-08-21T06:19:39;102239.63;;;25.22;100.00
8398;BME280;4236;54.504;9.588;2023-08-21T06:22:07;102240.28;;;24.81;100.00
8398;BME280;4236;54.504;9.588;2023-08-21T06:24:35;102248.06;;;24.94;100.00
8398;BME280;4236;54.504;9.588;2023-08-21T06:27:03;102237.78;;;25.54;100.00
8398;BME280;4236;54.504;9.588;2023-08-21T06:29:33;102243.28;;;26.33;100.00
8398;BME280;4236;54.504;9.588;2023-08-21T06:32:03;102246.69;;;26.55;100.00
8398;BME280;4236;54.504;9.588;2023-08-21T06:34:31;102242.78;;;27.18;100.00
8398;BME280;4236;54.504;9.588;2023-08-21T06:36:58;102240.66;;;27.81;100.00
8398;BME280;4236;54.504;9.588;2023-08-21T06:39:26;102246.44;;;28.05;100.00
8398;BME280;4236;54.504;9.588;2023-08-21T06:41:54;102246.06;;;28.36;100.00
8398;BME280;4236;54.504;9.588;2023-08-21T06:44:22;102244.31;;;28.76;100.00
8398;BME280;4236;54.504;9.588;2023-08-21T06:46:49;102242.19;;;29.06;99.21
8398;BME280;4236;54.504;9.588;2023-08-21T06:49:19;102246.75;;;29.65;94.32
8398;BME280;4236;54.504;9.588;2023-08-21T06:51:46;102248.88;;;29.73;82.49
8398;BME280;4236;54.504;9.588;2023-08-21T06:54:14;102237.94;;;29.97;90.91
8398;BME280;4236;54.504;9.588;2023-08-21T06:56:42;102238.09;;;30.10;82.76
8398;BME280;4236;54.504;9.588;2023-08-21T06:59:09;102235.28;;;30.63;88.96
8398;BME280;4236;54.504;9.588;2023-08-21T07:01:37;102238.63;;;31.02;86.56
8398;BME280;4236;54.504;9.588;2023-08-21T07:04:05;102239.16;;;31.04;80.58
8398;BME280;4236;54.504;9.588;2023-08-21T07:06:34;102248.84;;;31.02;77.57
8398;BME280;4236;54.504;9.588;2023-08-21T07:09:02;102251.06;;;31.00;81.00
8398;BME280;4236;54.504;9.588;2023-08-21T07:11:30;102247.97;;;30.83;77.81
8398;BME280;4236;54.504;9.588;2023-08-21T07:13:58;102244.34;;;30.87;75.42
8398;BME280;4236;54.504;9.588;2023-08-21T07:16:26;102246.13;;;30.31;67.51
8398;BME280;4236;54.504;9.588;2023-08-21T07:18:53;102252.22;;;30.28;74.87
8398;BME280;4236;54.504;9.588;2023-08-21T07:21:21;102244.94;;;29.84;77.33
8398;BME280;4236;54.504;9.588;2023-08-21T07:24:02;102243.81;;;29.56;67.32
8398;BME280;4236;54.504;9.588;2023-08-21T07:26:30;102247.06;;;29.58;76.28
8398;BME280;4236;54.504;9.588;2023-08-21T07:28:57;102248.19;;;29.24;70.21
8398;BME280;4236;54.504;9.588;2023-08-21T07:31:25;102253.63;;;29.29;79.00
8398;BME280;4236;54.504;9.588;2023-08-21T07:33:53;102246.53;;;29.18;80.75
8398;BME280;4236;54.504;9.588;2023-08-21T07:36:21;102243.78;;;28.64;77.70
8398;BME280;4236;54.504;9.588;2023-08-21T07:38:49;102254.00;;;28.48;79.37
8398;BME280;4236;54.504;9.588;2023-08-21T07:41:18;102249.72;;;28.01;85.40
8398;BME280;4236;54.504;9.588;2023-08-21T07:43:46;102250.81;;;27.95;85.32
8398;BME280;4236;54.504;9.588;2023-08-21T07:46:14;102251.31;;;27.32;89.08
8398;BME280;4236;54.504;9.588;2023-08-21T07:48:45;102247.53;;;27.83;92.03
8398;BME280;4236;54.504;9.588;2023-08-21T07:51:13;102248.09;;;27.80;92.90
8398;BME280;4236;54.504;9.588;2023-08-21T07:53:41;102247.75;;;27.26;94.40
8398;BME280;4236;54.504;9.588;2023-08-21T07:56:09;102254.69;;;26.72;93.53
8398;BME280;4236;54.504;9.588;2023-08-21T07:58:39;102258.50;;;26.66;99.78
8398;BME280;4236;54.504;9.588;2023-08-21T08:01:06;102263.34;;;26.49;100.00
8398;BME280;4236;54.504;9.588;2023-08-21T08:03:34;102256.31;;;26.16;100.00
8398;BME280;4236;54.504;9.588;2023-08-21T08:06:02;102250.75;;;26.11;100.00
8398;BME280;4236;54.504;9.588;2023-08-21T08:08:32;102252.00;;;25.88;100.00
8398;BME280;4236;54.504;9.588;2023-08-21T08:11:03;102259.69;;;25.33;100.00
8398;BME280;4236;54.504;9.588;2023-08-21T08:13:31;102267.69;;;24.52;100.00
8398;BME280;4236;54.504;9.588;2023-08-21T08:16:00;102270.97;;;24.33;100.00
8398;BME280;4236;54.504;9.588;2023-08-21T08:18:28;102265.59;;;24.38;100.00
8398;BME280;4236;54.504;9.588;2023-08-21T08:20:56;102264.06;;;25.12;100.00
8398;BME280;4236;54.504;9.588;2023-08-21T08:23:24;102252.88;;;25.35;100.00
8398;BME280;4236;54.504;9.588;2023-08-21T08:25:51;102260.91;;;24.93;100.00
8398;BME280;4236;54.504;9.588;2023-08-21T08:28:19;102263.09;;;24.74;100.00
8398;BME280;4236;54.504;9.588;2023-08-21T08:30:47;102268.03;;;24.17;100.00
8398;BME280;4236;54.504;9.588;2023-08-21T08:33:16;102270.59;;;23.91;100.00
8398;BME280;4236;54.504;9.588;2023-08-21T08:35:44;102264.47;;;23.67;100.00
8398;BME280;4236;54.504;9.588;2023-08-21T08:38:11;102265.47;;;24.11;100.00
8398;BME280;4236;54.504;9.588;2023-08-21T08:40:43;102265.47;;;24.49;100.00
8398;BME280;4236;54.504;9.588;2023-08-21T08:43:11;102260.91;;;24.93;100.00
8398;BME280;4236;54.504;9.588;2023-08-21T08:45:40;102261.66;;;25.42;100.00
8398;BME280;4236;54.504;9.588;2023-08-21T08:48:09;102257.84;;;25.70;99.55
8398;BME280;4236;54.504;9.588;2023-08-21T08:50:39;102257.66;;;26.13;95.89
8398;BME280;4236;54.504;9.588;2023-08-21T08:53:08;102249.28;;;26.30;99.84
8398;BME280;4236;54.504;9.588;2023-08-21T08:55:43;102250.59;;;26.22;91.84
8398;BME280;4236;54.504;9.588;2023-08-21T08:58:11;102246.03;;;26.38;94.09
8398;BME280;4236;54.504;9.588;2023-08-21T09:00:39;102246.13;;;26.58;92.34
8398;BME280;4236;54.504;9.588;2023-08-21T09:03:07;102243.25;;;25.86;93.10
8398;BME280;4236;54.504;9.588;2023-08-21T09:05:35;102244.19;;;25.11;98.50
8398;BME280;4236;54.504;9.588;2023-08-21T09:08:09;102255.97;;;24.13;100.00
8398;BME280;4236;54.504;9.588;2023-08-21T09:10:37;102260.91;;;23.66;100.00
8398;BME280;4236;54.504;9.588;2023-08-21T09:13:11;102258.81;;;23.12;100.00
8398;BME280;4236;54.504;9.588;2023-08-21T09:15:41;102263.59;;;23.05;100.00
8398;BME280;4236;54.504;9.588;2023-08-21T09:18:10;102271.22;;;22.80;100.00
8398;BME280;4236;54.504;9.588;2023-08-21T09:20:39;102269.72;;;22.72;100.00
8398;BME280;4236;54.504;9.588;2023-08-21T09:23:13;102267.28;;;23.55;100.00
8398;BME280;4236;54.504;9.588;2023-08-21T09:25:41;102266.88;;;23.97;100.00
8398;BME280;4236;54.504;9.588;2023-08-21T09:28:11;102257.03;;;23.96;100.00
8398;BME280;4236;54.504;9.588;2023-08-21T09:30:46;102264.72;;;24.54;100.00
8398;BME280;4236;54.504;9.588;2023-08-21T09:33:17;102254.34;;;24.94;100.00
8398;BME280;4236;54.504;9.588;2023-08-21T09:35:45;102247.41;;;25.08;95.23
8398;BME280;4236;54.504;9.588;2023-08-21T09:38:15;102264.44;;;24.94;98.28
8398;BME280;4236;54.504;9.588;2023-08-21T09:40:44;102259.72;;;25.11;100.00
8398;BME280;4236;54.504;9.588;2023-08-21T09:43:17;102261.84;;;25.89;100.00
8398;BME280;4236;54.504;9.588;2023-08-21T09:45:46;102252.88;;;25.62;95.68
8398;BME280;4236;54.504;9.588;2023-08-21T09:48:14;102261.06;;;25.99;86.86
8398;BME280;4236;54.504;9.588;2023-08-21T09:50:43;102253.25;;;26.12;85.58
8398;BME280;4236;54.504;9.588;2023-08-21T09:53:14;102251.41;;;26.18;83.07
8398;BME280;4236;54.504;9.588;2023-08-21T09:55:42;102243.66;;;26.10;86.10
8398;BME280;4236;54.504;9.588;2023-08-21T09:58:10;102244.66;;;25.94;86.84
8398;BME280;4236;54.504;9.588;2023-08-21T10:00:38;102245.56;;;25.72;87.99
8398;BME280;4236;54.504;9.588;2023-08-21T10:03:07;102243.75;;;25.51;88.16
8398;BME280;4236;54.504;9.588;2023-08-21T10:05:40;102242.78;;;25.62;93.33
8398;BME280;4236;54.504;9.588;2023-08-21T10:08:09;102240.81;;;25.31;96.63
8398;BME280;4236;54.504;9.588;2023-08-21T10:10:38;102245.03;;;26.07;95.47
8398;BME280;4236;54.504;9.588;2023-08-21T10:13:07;102241.78;;;26.67;89.82
8398;BME280;4236;54.504;9.588;2023-08-21T10:15:36;102242.75;;;26.88;87.25
8398;BME280;4236;54.504;9.588;2023-08-21T10:18:21;102237.31;;;27.13;85.94
8398;BME280;4236;54.504;9.588;2023-08-21T10:20:50;102242.31;;;26.12;83.39
8398;BME280;4236;54.504;9.588;2023-08-21T10:23:25;102241.91;;;25.94;80.49
8398;BME280;4236;54.504;9.588;2023-08-21T10:25:58;102241.47;;;25.70;78.59
8398;BME280;4236;54.504;9.588;2023-08-21T10:28:48;102243.69;;;25.46;81.94
8398;BME280;4236;54.504;9.588;2023-08-21T10:31:32;102242.00;;;25.72;87.21
8398;BME280;4236;54.504;9.588;2023-08-21T10:34:03;102241.31;;;26.23;83.62
8398;BME280;4236;54.504;9.588;2023-08-21T10:36:38;102244.44;;;26.05;78.79
8398;BME280;4236;54.504;9.588;2023-08-21T10:39:13;102248.00;;;25.42;84.54
8398;BME280;4236;54.504;9.588;2023-08-21T10:41:53;102239.66;;;25.27;86.04
8398;BME280;4236;54.504;9.588;2023-08-21T10:44:34;102240.03;;;25.62;81.78
8398;BME280;4236;54.504;9.588;2023-08-21T10:47:16;102244.97;;;26.39;86.40
8398;BME280;4236;54.504;9.588;2023-08-21T10:49:45;102248.22;;;26.93;82.90
8398;BME280;4236;54.504;9.588;2023-08-21T10:52:14;102254.56;;;26.47;77.76
8398;BME280;4236;54.504;9.588;2023-08-21T10:54:46;102251.69;;;25.84;81.31
8398;BME280;4236;54.504;9.588;2023-08-21T10:57:15;102254.34;;;25.21;87.05
8398;BME280;4236;54.504;9.588;2023-08-21T10:59:57;102251.16;;;25.02;80.58
8398;BME280;4236;54.504;9.588;2023-08-21T11:02:26;102261.97;;;25.46;83.07
8398;BME280;4236;54.504;9.588;2023-08-21T11:04:55;102256.97;;;25.96;85.95
8398;BME280;4236;54.504;9.588;2023-08-21T11:07:24;102253.88;;;26.19;85.99
8398;BME280;4236;54.504;9.588;2023-08-21T11:09:52;102254.94;;;25.23;83.92
8398;BME280;4236;54.504;9.588;2023-08-21T11:12:22;102261.94;;;24.70;83.02
8398;BME280;4236;54.504;9.588;2023-08-21T11:14:50;102257.28;;;24.88;86.31
8398;BME280;4236;54.504;9.588;2023-08-21T11:17:18;102248.84;;;25.43;84.22
8398;BME280;4236;54.504;9.588;2023-08-21T11:19:46;102250.59;;;25.85;80.80
8398;BME280;4236;54.504;9.588;2023-08-21T11:22:15;102259.59;;;26.18;81.32
8398;BME280;4236;54.504;9.588;2023-08-21T11:24:44;102257.06;;;26.53;81.20
8398;BME280;4236;54.504;9.588;2023-08-21T11:27:14;102258.84;;;26.79;76.77
8398;BME280;4236;54.504;9.588;2023-08-21T11:29:44;102251.78;;;26.99;71.51
8398;BME280;4236;54.504;9.588;2023-08-21T11:32:13;102251.84;;;27.09;70.23
8398;BME280;4236;54.504;9.588;2023-08-21T11:34:41;102256.19;;;27.00;70.04
8398;BME280;4236;54.504;9.588;2023-08-21T11:37:10;102262.16;;;26.91;67.77
8398;BME280;4236;54.504;9.588;2023-08-21T11:39:40;102257.13;;;26.63;66.00
8398;BME280;4236;54.504;9.588;2023-08-21T11:42:09;102264.56;;;26.26;75.69
8398;BME280;4236;54.504;9.588;2023-08-21T11:44:47;102262.00;;;26.14;75.16
8398;BME280;4236;54.504;9.588;2023-08-21T11:47:16;102263.41;;;25.48;70.37
8398;BME280;4236;54.504;9.588;2023-08-21T11:49:45;102250.31;;;25.50;76.28
8398;BME280;4236;54.504;9.588;2023-08-21T11:52:18;102257.97;;;25.26;75.04
8398;BME280;4236;54.504;9.588;2023-08-21T11:54:49;102259.56;;;25.22;74.93
8398;BME280;4236;54.504;9.588;2023-08-21T11:57:17;102259.75;;;24.89;72.53
8398;BME280;4236;54.504;9.588;2023-08-21T11:59:51;102258.19;;;25.20;80.32
8398;BME280;4236;54.504;9.588;2023-08-21T12:02:22;102247.72;;;25.39;79.87
8398;BME280;4236;54.504;9.588;2023-08-21T12:04:53;102257.47;;;25.56;76.29
8398;BME280;4236;54.504;9.588;2023-08-21T12:07:21;102265.34;;;25.53;77.69
8398;BME280;4236;54.504;9.588;2023-08-21T12:09:49;102262.66;;;25.58;78.28
8398;BME280;4236;54.504;9.588;2023-08-21T12:12:17;102253.47;;;25.69;74.88
8398;BME280;4236;54.504;9.588;2023-08-21T12:14:46;102255.78;;;25.87;76.54
8398;BME280;4236;54.504;9.588;2023-08-21T12:17:15;102257.41;;;26.15;71.60
8398;BME280;4236;54.504;9.588;2023-08-21T12:19:43;102262.34;;;26.18;75.83
8398;BME280;4236;54.504;9.588;2023-08-21T12:22:11;102257.22;;;25.36;72.05
8398;BME280;4236;54.504;9.588;2023-08-21T12:24:39;102258.34;;;24.87;76.93
8398;BME280;4236;54.504;9.588;2023-08-21T12:27:07;102252.91;;;24.87;79.02
8398;BME280;4236;54.504;9.588;2023-08-21T12:29:34;102254.34;;;24.72;81.87
8398;BME280;4236;54.504;9.588;2023-08-21T12:32:02;102255.97;;;25.17;82.37
8398;BME280;4236;54.504;9.588;2023-08-21T12:34:31;102251.56;;;25.69;76.65
8398;BME280;4236;54.504;9.588;2023-08-21T12:37:00;102242.44;;;25.91;78.28
8398;BME280;4236;54.504;9.588;2023-08-21T12:39:28;102253.81;;;26.61;71.75
8398;BME280;4236;54.504;9.588;2023-08-21T12:41:55;102258.63;;;26.96;71.74
8398;BME280;4236;54.504;9.588;2023-08-21T12:44:23;102258.13;;;27.19;70.46
8398;BME280;4236;54.504;9.588;2023-08-21T12:46:50;102256.25;;;27.40;65.71
8398;BME280;4236;54.504;9.588;2023-08-21T12:49:18;102256.84;;;27.52;67.69
8398;BME280;4236;54.504;9.588;2023-08-21T12:51:47;102256.84;;;27.57;68.48
8398;BME280;4236;54.504;9.588;2023-08-21T12:54:15;102259.03;;;27.90;67.87
8398;BME280;4236;54.504;9.588;2023-08-21T12:56:42;102252.69;;;28.25;65.44
8398;BME280;4236;54.504;9.588;2023-08-21T12:59:10;102255.91;;;28.47;63.02
8398;BME280;4236;54.504;9.588;2023-08-21T13:01:38;102258.34;;;28.69;58.76
8398;BME280;4236;54.504;9.588;2023-08-21T13:04:06;102255.03;;;28.72;56.88
8398;BME280;4236;54.504;9.588;2023-08-21T13:06:33;102252.78;;;28.79;56.39
8398;BME280;4236;54.504;9.588;2023-08-21T13:09:03;102246.97;;;28.91;57.29
8398;BME280;4236;54.504;9.588;2023-08-21T13:11:32;102247.19;;;28.99;56.33
8398;BME280;4236;54.504;9.588;2023-08-21T13:13:59;102241.66;;;29.04;57.71